createdAt,value
2023-02-02T00:00:31.530Z,10.07
2023-02-02T00:05:33.778Z,9.57
2023-02-02T00:10:35.986Z,8.90
2023-02-02T00:15:38.443Z,8.40
2023-02-02T00:20:40.652Z,9.05
2023-02-02T00:25:43.218Z,9.00
2023-02-02T00:30:45.891Z,9.60
2023-02-02T00:35:48.110Z,9.35
2023-02-02T00:40:50.550Z,8.45
2023-02-02T00:45:52.800Z,8.95
2023-02-02T00:50:55.339Z,8.13
2023-02-02T00:55:57.615Z,9.07
2023-02-02T01:00:59.914Z,9.15
2023-02-02T01:06:02.087Z,8.68
2023-02-02T01:11:04.428Z,9.10
2023-02-02T01:16:06.895Z,7.60
2023-02-02T01:21:10.357Z,8.73
2023-02-02T01:26:13.065Z,8.65
2023-02-02T01:31:16.905Z,8.57
2023-02-02T01:36:20.187Z,8.50
2023-02-02T01:41:23.902Z,9.55
2023-02-02T01:46:27.780Z,9.20
2023-02-02T01:51:36.852Z,9.38
2023-02-02T01:56:42.002Z,8.60
2023-02-02T02:01:44.613Z,9.05
2023-02-02T02:06:48.543Z,10.00
2023-02-02T02:11:53.090Z,8.82
2023-02-02T02:17:07.293Z,9.02
2023-02-02T02:22:36.791Z,8.38
2023-02-02T02:27:58.799Z,9.00
2023-02-02T02:33:21.339Z,8.85
2023-02-02T02:38:30.889Z,8.43
2023-02-02T02:43:36.714Z,8.60
2023-02-02T02:48:39.593Z,8.75
2023-02-02T02:53:41.872Z,9.13
2023-02-02T02:58:49.250Z,8.98
2023-02-02T03:09:20.094Z,9.18
2023-02-02T03:14:22.306Z,11.63
2023-02-02T03:19:24.467Z,10.40
2023-02-02T03:24:26.648Z,9.68
2023-02-02T03:29:28.980Z,9.40
2023-02-02T03:34:31.223Z,10.35
2023-02-02T03:39:33.365Z,12.15
2023-02-02T03:44:35.552Z,11.10
2023-02-02T03:49:37.775Z,11.10
2023-02-02T03:54:40.029Z,11.23
2023-02-02T03:59:42.177Z,11.85
2023-02-02T04:04:44.413Z,11.60
2023-02-02T04:09:46.560Z,12.38
2023-02-02T04:14:48.754Z,11.90
2023-02-02T04:19:54.092Z,11.48
2023-02-02T04:24:56.326Z,11.07
2023-02-02T04:29:58.520Z,10.82
2023-02-02T04:35:00.827Z,11.38
2023-02-02T04:40:02.995Z,10.23
2023-02-02T04:45:06.168Z,11.02
2023-02-02T04:50:09.231Z,10.82
2023-02-02T04:55:11.449Z,11.07
2023-02-02T05:00:14.635Z,11.15
2023-02-02T05:05:17.019Z,10.65
2023-02-02T05:10:19.234Z,10.27
2023-02-02T05:15:22.255Z,10.25
2023-02-02T05:20:24.630Z,10.02
2023-02-02T05:25:27.131Z,9.88
2023-02-02T05:30:29.444Z,9.88
2023-02-02T05:35:31.671Z,9.80
2023-02-02T05:40:35.200Z,10.23
2023-02-02T05:45:37.561Z,10.70
2023-02-02T05:50:39.969Z,9.65
2023-02-02T05:55:42.165Z,10.75
2023-02-02T06:00:44.454Z,8.52
2023-02-02T06:05:46.820Z,9.93
2023-02-02T06:10:49.477Z,10.10
2023-02-02T06:15:51.790Z,10.48
2023-02-02T06:20:57.808Z,11.82
2023-02-02T06:26:00.964Z,9.40
2023-02-02T06:31:07.051Z,10.80
2023-02-02T06:36:09.226Z,10.18
2023-02-02T06:41:11.379Z,10.57
2023-02-02T06:46:13.634Z,10.48
2023-02-02T06:51:16.063Z,9.75
2023-02-02T06:56:18.493Z,10.68
2023-02-02T07:01:20.888Z,9.25
2023-02-02T07:06:24.863Z,11.55
2023-02-02T07:11:27.089Z,11.13
2023-02-02T07:16:29.390Z,11.23
2023-02-02T07:21:36.329Z,12.15
2023-02-02T07:26:39.477Z,11.93
2023-02-02T07:31:41.763Z,11.55
2023-02-02T07:36:44.001Z,11.45
2023-02-02T07:41:46.408Z,10.95
2023-02-02T07:46:59.241Z,13.07
2023-02-02T07:52:01.477Z,9.82
2023-02-02T07:57:03.771Z,11.70
2023-02-02T08:02:06.299Z,11.35
2023-02-02T08:07:08.630Z,11.93
2023-02-02T08:12:10.787Z,11.95
2023-02-02T08:17:13.584Z,13.02
2023-02-02T08:22:15.841Z,11.98
2023-02-02T08:27:18.037Z,12.43
2023-02-02T08:32:20.219Z,13.23
2023-02-02T08:37:22.485Z,11.63
2023-02-02T08:42:24.727Z,10.80
2023-02-02T08:47:30.887Z,11.07
2023-02-02T08:52:33.394Z,11.05
2023-02-02T08:57:35.666Z,11.40
2023-02-02T09:02:37.845Z,10.95
2023-02-02T09:07:40.271Z,10.68
2023-02-02T09:12:42.415Z,11.18
2023-02-02T09:17:45.422Z,11.43
2023-02-02T09:22:47.758Z,9.20
2023-02-02T09:27:49.968Z,10.38
2023-02-02T09:32:52.271Z,10.68
2023-02-02T09:37:54.429Z,10.52
2023-02-02T09:43:03.257Z,11.50
2023-02-02T09:48:08.959Z,11.07
2023-02-02T09:53:13.424Z,10.98
2023-02-02T09:58:18.663Z,11.50
2023-02-02T10:03:28.536Z,10.55
2023-02-02T10:08:37.053Z,11.13
2023-02-02T10:13:39.429Z,11.32
2023-02-02T10:18:48.737Z,11.52
2023-02-02T10:23:51.632Z,11.07
2023-02-02T10:29:02.701Z,12.27
2023-02-02T10:34:10.566Z,10.68
2023-02-02T10:39:25.493Z,10.75
2023-02-02T10:44:31.293Z,11.85
2023-02-02T10:49:40.453Z,11.80
2023-02-02T10:54:57.110Z,9.63
2023-02-02T11:00:15.612Z,11.00
2023-02-02T11:05:41.511Z,10.68
2023-02-02T11:10:45.016Z,11.07
2023-02-02T11:15:47.527Z,10.50
2023-02-02T11:20:50.365Z,12.40
2023-02-02T11:26:00.226Z,12.05
2023-02-02T11:31:02.574Z,11.82
2023-02-02T11:36:21.267Z,13.10
2023-02-02T11:41:23.688Z,11.32
2023-02-02T11:46:34.968Z,12.15
2023-02-02T11:51:37.166Z,12.18
2023-02-02T11:56:39.503Z,11.82
2023-02-02T12:01:42.362Z,12.95
2023-02-02T12:06:44.635Z,12.45
2023-02-02T12:12:04.945Z,11.90
2023-02-02T12:17:10.238Z,11.85
2023-02-02T12:22:27.727Z,11.48
2023-02-02T12:27:33.642Z,11.10
2023-02-02T12:32:50.893Z,10.10
2023-02-02T12:37:59.340Z,10.85
2023-02-02T12:43:13.843Z,11.88
2023-02-02T12:48:23.945Z,11.45
2023-02-02T12:53:41.328Z,11.52
2023-02-02T12:58:56.373Z,11.50
2023-02-02T13:04:13.959Z,12.20
2023-02-02T13:09:30.633Z,11.25
2023-02-02T13:14:35.813Z,11.05
2023-02-02T13:19:41.996Z,11.07
2023-02-02T13:24:47.002Z,12.52
2023-02-02T13:29:49.329Z,10.90
2023-02-02T13:34:55.472Z,9.25
2023-02-02T13:40:23.614Z,11.45
2023-02-02T13:45:28.946Z,11.27
2023-02-02T13:50:34.324Z,11.48
2023-02-02T13:56:02.528Z,10.77
2023-02-02T14:01:06.776Z,10.88
2023-02-02T14:06:08.966Z,9.85
2023-02-02T14:11:16.530Z,11.15
2023-02-02T14:16:42.794Z,11.18
2023-02-02T14:21:44.941Z,11.55
2023-02-02T14:26:48.702Z,9.15
2023-02-02T14:31:54.420Z,10.45
2023-02-02T14:37:02.640Z,10.43
2023-02-02T14:42:36.833Z,10.05
2023-02-02T14:47:45.234Z,9.63
2023-02-02T14:52:57.029Z,9.57
2023-02-02T14:58:00.837Z,8.48
2023-02-02T15:03:21.845Z,9.57
2023-02-02T15:08:27.879Z,8.70
2023-02-02T15:13:37.919Z,8.80
2023-02-02T15:18:43.814Z,9.30
2023-02-02T15:23:46.968Z,10.30
2023-02-02T15:28:52.370Z,9.32
2023-02-02T15:33:58.698Z,9.02
2023-02-02T15:39:08.907Z,9.40
2023-02-02T15:44:21.314Z,7.93
2023-02-02T15:49:35.439Z,8.73
2023-02-02T15:54:38.545Z,9.10
2023-02-02T15:59:41.554Z,8.68
2023-02-02T16:04:44.052Z,8.82
2023-02-02T16:09:46.429Z,8.32
2023-02-02T16:14:53.266Z,8.13
2023-02-02T16:20:01.069Z,8.93
2023-02-02T16:25:11.186Z,8.52
2023-02-02T16:30:23.672Z,6.32
2023-02-02T16:35:46.049Z,7.70
2023-02-02T16:40:48.301Z,8.02
2023-02-02T16:45:55.200Z,8.60
2023-02-02T16:51:07.484Z,7.35
2023-02-02T16:56:24.762Z,8.18
2023-02-02T17:01:39.096Z,8.82
2023-02-02T17:06:53.059Z,8.15
2023-02-02T17:11:57.359Z,8.48
2023-02-02T17:17:09.231Z,8.45
2023-02-02T17:22:15.247Z,8.30
2023-02-02T17:27:37.562Z,7.63
2023-02-02T17:32:45.052Z,8.27
2023-02-02T17:37:47.557Z,7.70
2023-02-02T17:42:55.066Z,9.90
2023-02-02T17:48:00.984Z,7.80
2023-02-02T17:53:10.671Z,8.05
2023-02-02T17:58:15.286Z,8.52
2023-02-02T18:03:20.868Z,8.38
2023-02-02T18:08:27.642Z,9.13
2023-02-02T18:13:29.769Z,9.30
2023-02-02T18:18:38.403Z,8.88
2023-02-02T18:23:49.164Z,8.35
2023-02-02T18:28:55.553Z,8.80
2023-02-02T18:33:57.864Z,8.88
2023-02-02T18:39:07.901Z,9.25
2023-02-02T18:44:18.137Z,9.57
2023-02-02T18:54:26.834Z,8.35
2023-02-02T18:59:29.937Z,8.95
2023-02-02T19:04:32.115Z,10.43
2023-02-02T19:09:36.841Z,10.98
2023-02-02T19:14:39.100Z,11.55
2023-02-02T19:19:43.246Z,9.70
2023-02-02T19:24:45.453Z,10.95
2023-02-02T19:29:51.767Z,11.00
2023-02-02T19:34:55.161Z,11.63
2023-02-02T19:40:09.518Z,11.40
2023-02-02T19:45:27.245Z,11.40
2023-02-02T19:50:33.030Z,10.93
2023-02-02T19:55:36.669Z,10.02
2023-02-02T20:00:43.910Z,11.40
2023-02-02T20:05:47.158Z,12.52
2023-02-02T20:10:49.460Z,11.18
2023-02-02T20:15:52.771Z,10.88
2023-02-02T20:20:56.130Z,11.85
2023-02-02T20:25:59.119Z,11.90
2023-02-02T20:31:05.186Z,12.35
2023-02-02T20:36:26.089Z,12.55
2023-02-02T20:41:28.309Z,12.38
2023-02-02T20:46:30.457Z,13.20
2023-02-02T20:51:32.744Z,14.05
2023-02-02T20:56:35.137Z,13.82
2023-02-02T21:01:37.312Z,12.65
2023-02-02T21:06:40.343Z,14.38
2023-02-02T21:11:43.140Z,14.55
2023-02-02T21:16:45.389Z,14.85
2023-02-02T21:21:47.535Z,14.27
2023-02-02T21:26:52.153Z,15.25
2023-02-02T21:31:59.032Z,15.40
2023-02-02T21:37:01.420Z,15.52
2023-02-02T21:42:09.664Z,17.23
2023-02-02T21:47:30.847Z,17.42
2023-02-02T21:52:33.420Z,16.30
2023-02-02T21:57:36.736Z,16.48
2023-02-02T22:02:43.351Z,14.43
2023-02-02T22:07:47.918Z,18.08
2023-02-02T22:12:50.260Z,17.27
2023-02-02T22:17:52.464Z,16.67
2023-02-02T22:22:54.620Z,19.13
2023-02-02T22:27:58.183Z,18.05
2023-02-02T22:33:00.398Z,18.95
2023-02-02T22:38:03.059Z,17.65
2023-02-02T22:43:06.421Z,18.77
2023-02-02T22:48:08.625Z,18.70
2023-02-02T22:53:11.080Z,18.70
2023-02-02T22:58:13.329Z,16.75
2023-02-02T23:03:15.496Z,18.42
2023-02-02T23:08:17.714Z,17.48
2023-02-02T23:13:20.565Z,13.63
2023-02-02T23:18:23.509Z,14.20
2023-02-02T23:23:25.663Z,12.13
2023-02-02T23:28:27.885Z,11.35
2023-02-02T23:33:30.000Z,12.38
2023-02-02T23:38:32.128Z,11.18
2023-02-02T23:43:34.225Z,10.75
2023-02-02T23:48:36.668Z,10.00
2023-02-02T23:53:39.019Z,11.52
2023-02-02T23:58:41.789Z,11.38
